createdAt,value
2022-11-05T00:04:06.932Z,9.40
2022-11-05T00:09:29.568Z,9.50
2022-11-05T00:12:16.372Z,9.40
2022-11-05T00:15:01.744Z,9.40
2022-11-05T00:19:55.432Z,9.40
2022-11-05T00:25:14.204Z,9.20
2022-11-05T00:27:41.175Z,9.20
2022-11-05T00:30:09.194Z,9.10
2022-11-05T00:35:02.989Z,8.90
2022-11-05T00:42:50.055Z,8.70
2022-11-05T00:48:02.736Z,8.60
2022-11-05T00:50:29.775Z,8.60
2022-11-05T00:53:01.614Z,8.50
2022-11-05T00:55:38.124Z,8.50
2022-11-05T00:58:16.783Z,8.50
2022-11-05T01:00:49.236Z,8.40
2022-11-05T01:03:17.752Z,8.40
2022-11-05T01:05:50.419Z,8.40
2022-11-05T01:08:19.538Z,8.30
2022-11-05T01:10:49.146Z,8.30
2022-11-05T01:13:19.539Z,8.30
2022-11-05T01:15:47.461Z,8.30
2022-11-05T01:20:41.448Z,8.20
2022-11-05T01:23:13.221Z,8.10
2022-11-05T01:25:41.235Z,8.10
2022-11-05T01:28:09.587Z,8.10
2022-11-05T01:30:38.606Z,8.00
2022-11-05T01:33:05.634Z,7.90
2022-11-05T01:37:59.394Z,7.90
2022-11-05T01:40:26.605Z,7.90
2022-11-05T01:45:27.589Z,7.80
2022-11-05T01:48:00.705Z,7.80
2022-11-05T01:50:41.844Z,7.70
2022-11-05T01:53:11.501Z,7.70
2022-11-05T01:55:59.555Z,7.70
2022-11-05T01:58:30.709Z,7.70
2022-11-05T02:00:57.464Z,7.80
2022-11-05T02:03:25.121Z,7.70
2022-11-05T02:05:55.257Z,7.70
2022-11-05T02:08:43.786Z,7.70
2022-11-05T02:11:14.314Z,7.70
2022-11-05T02:13:40.986Z,7.70
2022-11-05T02:16:25.469Z,7.60
2022-11-05T02:19:34.084Z,7.60
2022-11-05T02:22:38.462Z,7.60
2022-11-05T02:25:25.322Z,7.60
2022-11-05T02:28:10.604Z,7.60
2022-11-05T02:30:54.508Z,7.50
2022-11-05T02:33:56.578Z,7.50
2022-11-05T02:36:54.270Z,7.50
2022-11-05T02:39:42.969Z,7.60
2022-11-05T02:42:20.971Z,7.50
2022-11-05T02:44:53.240Z,7.70
2022-11-05T02:47:31.929Z,7.70
2022-11-05T02:50:36.115Z,7.80
2022-11-05T02:53:27.488Z,7.80
2022-11-05T02:56:02.060Z,7.90
2022-11-05T02:58:29.373Z,7.90
2022-11-05T03:00:57.312Z,7.90
2022-11-05T03:03:28.969Z,7.80
2022-11-05T03:06:14.277Z,7.80
2022-11-05T03:08:59.158Z,7.80
2022-11-05T03:11:29.613Z,7.90
2022-11-05T03:14:10.982Z,7.90
2022-11-05T03:16:42.652Z,8.00
2022-11-05T03:19:19.918Z,8.00
2022-11-05T03:21:56.301Z,8.00
2022-11-05T03:24:33.007Z,8.10
2022-11-05T03:27:05.681Z,8.10
2022-11-05T03:29:41.721Z,8.10
2022-11-05T03:32:10.895Z,8.10
2022-11-05T03:34:43.326Z,8.20
2022-11-05T03:37:11.550Z,8.10
2022-11-05T03:39:42.950Z,8.20
2022-11-05T03:42:14.475Z,8.20
2022-11-05T03:44:50.397Z,8.20
2022-11-05T03:47:24.533Z,8.10
2022-11-05T03:50:02.572Z,8.10
2022-11-05T03:52:36.227Z,8.10
2022-11-05T03:55:03.129Z,8.10
2022-11-05T03:57:32.879Z,8.00
2022-11-05T03:59:59.535Z,8.00
2022-11-05T04:02:27.472Z,8.00
2022-11-05T04:04:54.869Z,7.90
2022-11-05T04:07:40.334Z,7.90
2022-11-05T04:13:11.773Z,7.70
2022-11-05T04:15:57.192Z,7.80
2022-11-05T04:23:55.391Z,7.50
2022-11-05T04:29:09.625Z,7.40
2022-11-05T04:31:37.333Z,7.30
2022-11-05T04:41:26.614Z,7.20
2022-11-05T04:43:53.235Z,7.10
2022-11-05T04:48:47.020Z,7.10
2022-11-05T04:56:22.283Z,6.90
2022-11-05T05:01:22.307Z,6.90
2022-11-05T05:03:50.764Z,6.80
2022-11-05T05:06:18.583Z,6.90
2022-11-05T05:08:47.219Z,6.80
2022-11-05T05:11:16.090Z,6.70
2022-11-05T05:16:17.193Z,6.70
2022-11-05T05:21:32.427Z,6.70
2022-11-05T05:23:59.212Z,6.70
2022-11-05T05:28:53.971Z,6.70
2022-11-05T05:31:21.949Z,6.70
2022-11-05T05:33:48.701Z,6.60
2022-11-05T05:36:15.332Z,6.60
2022-11-05T05:38:42.013Z,6.60
2022-11-05T05:43:35.746Z,6.50
2022-11-05T05:46:04.613Z,6.50
2022-11-05T05:48:31.737Z,6.50
2022-11-05T05:51:02.628Z,6.40
2022-11-05T05:53:30.451Z,6.40
2022-11-05T05:58:28.864Z,6.30
2022-11-05T06:03:22.887Z,6.30
2022-11-05T06:08:16.627Z,6.20
2022-11-05T06:10:43.315Z,6.20
2022-11-05T06:18:04.749Z,6.10
2022-11-05T06:20:31.442Z,6.10
2022-11-05T06:25:25.970Z,6.10
2022-11-05T06:27:53.702Z,6.10
2022-11-05T06:32:48.351Z,6.10
2022-11-05T06:35:15.701Z,6.00
2022-11-05T06:40:09.783Z,6.00
2022-11-05T06:42:36.450Z,6.00
2022-11-05T06:47:30.468Z,6.00
2022-11-05T06:52:24.293Z,6.00
2022-11-05T06:54:51.163Z,6.00
2022-11-05T06:59:44.895Z,6.00
2022-11-05T07:02:13.637Z,6.00
2022-11-05T07:04:40.439Z,6.00
2022-11-05T07:07:07.059Z,6.00
2022-11-05T07:09:33.748Z,6.10
2022-11-05T07:14:27.422Z,6.10
2022-11-05T07:19:21.196Z,6.10
2022-11-05T07:21:48.686Z,6.20
2022-11-05T07:24:15.506Z,6.20
2022-11-05T07:29:09.404Z,6.30
2022-11-05T07:36:30.567Z,6.40
2022-11-05T07:41:27.923Z,6.50
2022-11-05T07:43:54.609Z,6.50
2022-11-05T07:48:48.287Z,6.60
2022-11-05T07:51:14.905Z,6.60
2022-11-05T07:56:12.879Z,6.70
2022-11-05T08:01:07.256Z,6.80
2022-11-05T08:06:01.575Z,6.90
2022-11-05T08:11:03.196Z,7.00
2022-11-05T08:13:29.861Z,7.00
2022-11-05T08:18:31.180Z,7.10
2022-11-05T08:20:59.676Z,7.20
2022-11-05T08:23:31.042Z,7.30
2022-11-05T08:25:58.183Z,7.30
2022-11-05T08:28:26.346Z,7.40
2022-11-05T08:30:55.526Z,7.40
2022-11-05T08:33:23.657Z,7.40
2022-11-05T08:35:50.612Z,7.50
2022-11-05T08:38:19.144Z,7.60
2022-11-05T08:40:53.851Z,7.60
2022-11-05T08:43:20.666Z,7.70
2022-11-05T08:48:17.007Z,7.80
2022-11-05T08:50:45.921Z,7.80
2022-11-05T08:53:14.007Z,7.80
2022-11-05T08:58:17.725Z,8.00
2022-11-05T09:00:46.316Z,8.00
2022-11-05T09:05:42.856Z,8.20
2022-11-05T09:08:15.350Z,8.20
2022-11-05T09:10:42.859Z,8.30
2022-11-05T09:13:16.642Z,8.30
2022-11-05T09:18:14.052Z,8.40
2022-11-05T09:20:41.034Z,8.50
2022-11-05T09:23:08.840Z,8.50
2022-11-05T09:25:35.823Z,8.60
2022-11-05T09:28:20.361Z,8.60
2022-11-05T09:30:51.801Z,8.70
2022-11-05T09:33:21.662Z,8.80
2022-11-05T09:35:48.365Z,8.80
2022-11-05T09:38:15.512Z,8.90
2022-11-05T09:41:12.689Z,9.00
2022-11-05T09:43:44.395Z,9.00
2022-11-05T09:46:22.278Z,9.10
2022-11-05T09:49:11.840Z,9.00
2022-11-05T09:51:40.803Z,9.10
2022-11-05T09:56:37.454Z,9.30
2022-11-05T09:59:21.638Z,9.30
2022-11-05T10:01:49.531Z,9.40
2022-11-05T10:04:22.730Z,9.40
2022-11-05T10:06:55.250Z,9.50
2022-11-05T10:09:31.248Z,9.50
2022-11-05T10:12:10.021Z,9.70
2022-11-05T10:14:41.716Z,9.70
2022-11-05T10:17:22.174Z,9.90
2022-11-05T10:19:56.039Z,9.90
2022-11-05T10:22:22.776Z,10.00
2022-11-05T10:24:51.373Z,10.10
2022-11-05T10:27:30.734Z,10.20
2022-11-05T10:32:36.396Z,10.30
2022-11-05T10:35:07.763Z,10.40
2022-11-05T10:40:37.073Z,10.40
2022-11-05T10:43:28.877Z,10.50
2022-11-05T10:46:32.712Z,10.70
2022-11-05T10:49:11.434Z,10.90
2022-11-05T10:51:39.033Z,10.90
2022-11-05T10:54:16.968Z,10.90
2022-11-05T10:56:44.160Z,11.10
2022-11-05T10:59:25.932Z,11.20
2022-11-05T11:02:16.310Z,11.40
2022-11-05T11:04:43.406Z,11.60
2022-11-05T11:07:21.887Z,11.70
2022-11-05T11:09:49.751Z,11.60
2022-11-05T11:12:24.450Z,11.70
2022-11-05T11:15:16.680Z,11.70
2022-11-05T11:17:43.319Z,11.80
2022-11-05T11:20:28.623Z,11.90
2022-11-05T11:23:01.232Z,12.10
2022-11-05T11:25:38.154Z,12.20
2022-11-05T11:28:06.688Z,12.20
2022-11-05T11:30:35.012Z,12.10
2022-11-05T11:33:10.859Z,12.10
2022-11-05T11:35:39.356Z,12.20
2022-11-05T11:38:07.308Z,12.30
2022-11-05T11:40:38.321Z,12.30
2022-11-05T11:43:15.139Z,12.30
2022-11-05T11:45:49.613Z,12.30
2022-11-05T11:48:19.051Z,12.30
2022-11-05T11:50:48.021Z,12.20
2022-11-05T11:53:20.731Z,12.30
2022-11-05T11:56:20.957Z,12.30
2022-11-05T11:58:53.689Z,12.30
2022-11-05T12:01:38.589Z,12.40
2022-11-05T12:04:27.349Z,12.50
2022-11-05T12:07:12.314Z,12.50
2022-11-05T12:10:11.428Z,12.60
2022-11-05T12:12:46.798Z,12.50
2022-11-05T12:15:28.366Z,12.50
2022-11-05T12:18:06.473Z,12.40
2022-11-05T12:21:06.674Z,12.40
2022-11-05T12:23:45.052Z,12.30
2022-11-05T12:26:31.923Z,12.20
2022-11-05T12:29:23.114Z,12.20
2022-11-05T12:32:17.130Z,12.20
2022-11-05T12:35:13.827Z,12.20
2022-11-05T12:38:04.100Z,12.50
2022-11-05T12:40:51.474Z,12.60
2022-11-05T12:43:36.090Z,12.80
2022-11-05T12:46:16.188Z,12.80
2022-11-05T12:48:42.867Z,12.90
2022-11-05T12:51:29.743Z,12.80
2022-11-05T12:54:17.925Z,12.60
2022-11-05T12:56:49.123Z,12.50
2022-11-05T12:59:31.568Z,12.50
2022-11-05T13:02:16.892Z,12.60
2022-11-05T13:05:05.307Z,12.50
2022-11-05T13:07:36.631Z,12.50
2022-11-05T13:10:21.210Z,12.40
2022-11-05T13:12:56.089Z,12.40
2022-11-05T13:15:33.717Z,12.30
2022-11-05T13:18:05.849Z,12.40
2022-11-05T13:20:37.535Z,12.40
2022-11-05T13:23:31.029Z,12.50
2022-11-05T13:26:20.114Z,12.50
2022-11-05T13:31:20.513Z,12.60
2022-11-05T13:33:50.641Z,12.70
2022-11-05T13:36:51.265Z,12.70
2022-11-05T13:39:46.920Z,12.70
2022-11-05T13:44:57.912Z,12.70
2022-11-05T13:47:50.049Z,12.60
2022-11-05T13:50:25.508Z,12.50
2022-11-05T13:52:55.186Z,12.40
2022-11-05T13:55:24.673Z,12.20
2022-11-05T13:58:12.968Z,12.20
2022-11-05T14:00:58.488Z,12.20
2022-11-05T14:06:05.453Z,12.00
2022-11-05T14:08:41.133Z,12.00
2022-11-05T14:11:33.136Z,12.00
2022-11-05T14:14:17.835Z,12.00
2022-11-05T14:16:54.934Z,12.00
2022-11-05T14:19:32.257Z,12.00
2022-11-05T14:21:59.701Z,12.00
2022-11-05T14:24:45.727Z,12.00
2022-11-05T14:29:47.565Z,12.00
2022-11-05T14:32:17.218Z,11.90
2022-11-05T14:37:10.843Z,11.90
2022-11-05T14:42:14.561Z,11.80
2022-11-05T14:44:56.530Z,11.80
2022-11-05T14:47:26.124Z,11.80
2022-11-05T14:50:17.573Z,11.70
2022-11-05T14:52:53.201Z,11.70
2022-11-05T14:55:45.874Z,11.60
2022-11-05T14:58:37.049Z,11.60
2022-11-05T15:01:09.413Z,11.50
2022-11-05T15:03:46.274Z,11.50
2022-11-05T15:06:32.180Z,11.40
2022-11-05T15:11:33.161Z,11.40
2022-11-05T15:14:17.951Z,11.40
2022-11-05T15:16:49.355Z,11.40
2022-11-05T15:19:27.233Z,11.30
2022-11-05T15:21:57.656Z,11.30
2022-11-05T15:24:28.034Z,11.20
2022-11-05T15:27:08.890Z,11.20
2022-11-05T15:34:35.655Z,11.10
2022-11-05T15:37:04.093Z,11.10
2022-11-05T15:39:33.558Z,11.00
2022-11-05T15:42:04.759Z,10.90
2022-11-05T15:44:40.181Z,10.80
2022-11-05T15:49:34.210Z,10.90
2022-11-05T15:52:00.945Z,10.90
2022-11-05T15:54:30.504Z,11.00
2022-11-05T15:56:58.935Z,10.90
2022-11-05T15:59:27.469Z,10.90
2022-11-05T16:02:28.753Z,10.80
2022-11-05T16:04:57.420Z,10.70
2022-11-05T16:07:24.684Z,10.70
2022-11-05T16:10:02.221Z,10.80
2022-11-05T16:12:35.209Z,10.80
2022-11-05T16:15:10.658Z,10.80
2022-11-05T16:17:50.164Z,10.80
2022-11-05T16:20:32.275Z,10.70
2022-11-05T16:23:00.761Z,10.80
2022-11-05T16:25:30.397Z,10.80
2022-11-05T16:27:58.459Z,10.70
2022-11-05T16:30:26.239Z,10.70
2022-11-05T16:32:53.700Z,10.70
2022-11-05T16:35:25.030Z,10.70
2022-11-05T16:37:52.704Z,10.60
2022-11-05T16:40:24.322Z,10.50
2022-11-05T16:42:52.794Z,10.40
2022-11-05T16:45:22.623Z,10.40
2022-11-05T16:47:49.691Z,10.40
2022-11-05T16:50:30.820Z,10.40
2022-11-05T16:57:54.633Z,10.40
2022-11-05T17:00:22.162Z,10.50
2022-11-05T17:02:49.318Z,10.40
2022-11-05T17:05:26.041Z,10.50
2022-11-05T17:07:53.505Z,10.40
2022-11-05T17:10:21.214Z,10.50
2022-11-05T17:12:48.447Z,10.40
2022-11-05T17:15:27.351Z,10.40
2022-11-05T17:17:54.987Z,10.40
2022-11-05T17:22:48.730Z,10.40
2022-11-05T17:25:15.470Z,10.40
2022-11-05T17:30:11.285Z,10.40
2022-11-05T17:32:38.009Z,10.40
2022-11-05T17:35:07.316Z,10.40
2022-11-05T17:40:01.524Z,10.40
2022-11-05T17:44:55.268Z,10.30
2022-11-05T17:52:16.024Z,10.20
2022-11-05T17:54:42.734Z,10.20
2022-11-05T17:59:36.563Z,10.10
2022-11-05T18:02:03.446Z,10.10
2022-11-05T18:04:30.501Z,10.10
2022-11-05T18:09:24.270Z,10.10
2022-11-05T18:11:50.930Z,10.00
2022-11-05T18:14:23.736Z,10.00
2022-11-05T18:16:51.384Z,10.00
2022-11-05T18:21:45.341Z,9.90
2022-11-05T18:24:12.035Z,10.00
2022-11-05T18:29:06.169Z,9.90
2022-11-05T18:36:29.740Z,9.90
2022-11-05T18:39:00.819Z,9.80
2022-11-05T18:41:27.854Z,9.80
2022-11-05T18:44:01.701Z,9.80
2022-11-05T18:46:56.375Z,9.80
2022-11-05T18:49:17.206Z,9.70
2022-11-05T18:51:43.886Z,9.70
2022-11-05T18:54:10.815Z,9.70
2022-11-05T19:02:05.172Z,9.70
2022-11-05T19:07:04.363Z,9.70
2022-11-05T19:09:35.704Z,9.60
2022-11-05T19:12:03.089Z,9.70
2022-11-05T19:16:57.978Z,9.50
2022-11-05T19:21:52.531Z,9.60
2022-11-05T19:24:19.249Z,9.70
2022-11-05T19:26:46.730Z,9.60
2022-11-05T19:29:13.554Z,9.60
2022-11-05T19:39:08.650Z,9.70
2022-11-05T19:44:03.678Z,9.70
2022-11-05T19:46:31.676Z,9.70
2022-11-05T19:49:00.352Z,9.70
2022-11-05T19:51:29.412Z,9.70
2022-11-05T19:53:56.756Z,9.60
2022-11-05T19:56:26.293Z,9.60
2022-11-05T19:58:53.920Z,9.60
2022-11-05T20:01:22.074Z,9.60
2022-11-05T20:03:48.946Z,9.60
2022-11-05T20:06:31.920Z,9.60
2022-11-05T20:11:53.153Z,9.50
2022-11-05T20:14:20.235Z,9.50
2022-11-05T20:19:16.827Z,9.40
2022-11-05T20:21:44.306Z,9.40
2022-11-05T20:24:13.199Z,9.30
2022-11-05T20:36:28.714Z,9.30
2022-11-05T20:39:02.714Z,9.30
2022-11-05T20:41:30.680Z,9.30
2022-11-05T20:43:57.711Z,9.30
2022-11-05T20:51:21.474Z,9.20
2022-11-05T20:53:48.919Z,9.20
2022-11-05T20:56:18.968Z,9.20
2022-11-05T20:58:46.481Z,9.20
2022-11-05T21:01:15.724Z,9.20
2022-11-05T21:03:43.686Z,9.10
2022-11-05T21:13:32.987Z,8.90
2022-11-05T21:18:30.635Z,8.90
2022-11-05T21:20:59.710Z,8.80
2022-11-05T21:23:28.270Z,8.80
2022-11-05T21:25:55.243Z,8.80
2022-11-05T21:28:22.046Z,8.90
2022-11-05T21:30:49.120Z,8.90
2022-11-05T21:33:18.077Z,9.00
2022-11-05T21:35:48.310Z,9.00
2022-11-05T21:38:17.172Z,9.00
2022-11-05T21:43:11.729Z,9.10
2022-11-05T21:45:39.949Z,9.10
2022-11-05T21:48:07.857Z,9.10
2022-11-05T21:50:54.059Z,9.10
2022-11-05T21:56:37.526Z,9.00
2022-11-05T21:59:23.443Z,9.00
2022-11-05T22:04:17.414Z,8.90
2022-11-05T22:06:44.045Z,8.90
2022-11-05T22:09:10.714Z,8.80
2022-11-05T22:11:37.872Z,8.70
2022-11-05T22:21:26.429Z,8.50
2022-11-05T22:23:53.539Z,8.50
2022-11-05T22:31:15.827Z,8.40
2022-11-05T22:33:43.294Z,8.50
2022-11-05T22:36:11.492Z,8.40
2022-11-05T22:38:39.222Z,8.30
2022-11-05T22:41:11.015Z,8.30
2022-11-05T22:43:38.186Z,8.30
2022-11-05T22:46:12.434Z,8.20
2022-11-05T22:48:40.209Z,8.20
2022-11-05T22:51:09.721Z,8.20
2022-11-05T22:53:37.094Z,8.10
2022-11-05T22:56:05.105Z,8.10
2022-11-05T23:03:27.324Z,8.00
2022-11-05T23:06:39.306Z,7.90
2022-11-05T23:09:46.410Z,7.80
2022-11-05T23:12:26.037Z,7.80
2022-11-05T23:14:54.236Z,7.80
2022-11-05T23:17:39.871Z,7.80
2022-11-05T23:20:28.984Z,7.80
2022-11-05T23:23:14.390Z,7.70
2022-11-05T23:25:41.156Z,7.70
2022-11-05T23:28:10.103Z,7.70
2022-11-05T23:31:01.420Z,7.70
2022-11-05T23:33:32.317Z,7.60
2022-11-05T23:41:30.669Z,7.60
2022-11-05T23:44:16.102Z,7.70
2022-11-05T23:47:01.534Z,7.60
